sensor_id;sensor_type;location;lat;lon;timestamp;P1;durP1;ratioP1;P2;durP2;ratioP2
63714;SDS011;49858;48.956;9.076;2023-07-29T00:02:04;5.53;;;2.85;;
63714;SDS011;49858;48.956;9.076;2023-07-29T00:04:32;5.30;;;2.90;;
63714;SDS011;49858;48.956;9.076;2023-07-29T00:07:00;6.00;;;2.92;;
63714;SDS011;49858;48.956;9.076;2023-07-29T00:09:28;4.85;;;2.88;;
63714;SDS011;49858;48.956;9.076;2023-07-29T00:11:56;5.00;;;2.83;;
63714;SDS011;49858;48.956;9.076;2023-07-29T00:14:23;4.18;;;2.55;;
63714;SDS011;49858;48.956;9.076;2023-07-29T00:16:53;4.60;;;3.20;;
63714;SDS011;49858;48.956;9.076;2023-07-29T00:19:21;4.85;;;3.13;;
63714;SDS011;49858;48.956;9.076;2023-07-29T00:21:49;5.55;;;3.65;;
63714;SDS011;49858;48.956;9.076;2023-07-29T00:24:17;6.30;;;2.95;;
63714;SDS011;49858;48.956;9.076;2023-07-29T00:26:45;4.70;;;3.00;;
63714;SDS011;49858;48.956;9.076;2023-07-29T00:29:13;6.82;;;3.90;;
63714;SDS011;49858;48.956;9.076;2023-07-29T00:31:41;5.90;;;3.45;;
63714;SDS011;49858;48.956;9.076;2023-07-29T00:34:14;6.35;;;3.58;;
63714;SDS011;49858;48.956;9.076;2023-07-29T00:36:46;7.55;;;4.63;;
63714;SDS011;49858;48.956;9.076;2023-07-29T00:39:13;7.28;;;3.72;;
63714;SDS011;49858;48.956;9.076;2023-07-29T00:41:41;8.45;;;3.72;;
63714;SDS011;49858;48.956;9.076;2023-07-29T00:44:09;6.85;;;3.70;;
63714;SDS011;49858;48.956;9.076;2023-07-29T00:46:37;9.38;;;4.13;;
63714;SDS011;49858;48.956;9.076;2023-07-29T00:49:08;6.50;;;4.00;;
63714;SDS011;49858;48.956;9.076;2023-07-29T00:51:38;6.45;;;3.60;;
63714;SDS011;49858;48.956;9.076;2023-07-29T00:54:06;6.65;;;4.28;;
63714;SDS011;49858;48.956;9.076;2023-07-29T00:56:34;7.18;;;3.83;;
63714;SDS011;49858;48.956;9.076;2023-07-29T00:59:03;7.53;;;4.68;;
63714;SDS011;49858;48.956;9.076;2023-07-29T01:01:34;4.82;;;3.35;;
63714;SDS011;49858;48.956;9.076;2023-07-29T01:04:02;6.00;;;3.60;;
63714;SDS011;49858;48.956;9.076;2023-07-29T01:06:33;5.63;;;3.65;;
63714;SDS011;49858;48.956;9.076;2023-07-29T01:09:12;12.48;;;5.00;;
63714;SDS011;49858;48.956;9.076;2023-07-29T01:11:48;10.07;;;4.53;;
63714;SDS011;49858;48.956;9.076;2023-07-29T01:14:25;8.50;;;4.45;;
63714;SDS011;49858;48.956;9.076;2023-07-29T01:17:02;9.60;;;4.60;;
63714;SDS011;49858;48.956;9.076;2023-07-29T01:19:42;8.10;;;3.95;;
63714;SDS011;49858;48.956;9.076;2023-07-29T01:22:22;8.07;;;4.53;;
63714;SDS011;49858;48.956;9.076;2023-07-29T01:24:54;8.43;;;4.15;;
63714;SDS011;49858;48.956;9.076;2023-07-29T01:27:25;7.05;;;3.72;;
63714;SDS011;49858;48.956;9.076;2023-07-29T01:29:53;7.28;;;3.95;;
63714;SDS011;49858;48.956;9.076;2023-07-29T01:32:25;5.75;;;3.67;;
63714;SDS011;49858;48.956;9.076;2023-07-29T01:35:05;6.43;;;4.15;;
63714;SDS011;49858;48.956;9.076;2023-07-29T01:37:39;8.35;;;4.28;;
63714;SDS011;49858;48.956;9.076;2023-07-29T01:40:10;6.22;;;3.70;;
63714;SDS011;49858;48.956;9.076;2023-07-29T01:42:38;6.28;;;3.95;;
63714;SDS011;49858;48.956;9.076;2023-07-29T01:45:06;7.13;;;3.95;;
63714;SDS011;49858;48.956;9.076;2023-07-29T01:47:34;5.63;;;3.42;;
63714;SDS011;49858;48.956;9.076;2023-07-29T01:50:07;5.50;;;3.17;;
63714;SDS011;49858;48.956;9.076;2023-07-29T01:52:36;4.78;;;3.08;;
63714;SDS011;49858;48.956;9.076;2023-07-29T01:55:04;4.53;;;2.95;;
63714;SDS011;49858;48.956;9.076;2023-07-29T01:57:33;5.53;;;2.60;;
63714;SDS011;49858;48.956;9.076;2023-07-29T02:00:01;4.03;;;1.98;;
63714;SDS011;49858;48.956;9.076;2023-07-29T02:02:41;5.22;;;2.70;;
63714;SDS011;49858;48.956;9.076;2023-07-29T02:05:09;4.22;;;2.50;;
63714;SDS011;49858;48.956;9.076;2023-07-29T02:07:36;4.57;;;2.63;;
63714;SDS011;49858;48.956;9.076;2023-07-29T02:10:05;5.40;;;3.22;;
63714;SDS011;49858;48.956;9.076;2023-07-29T02:12:35;4.85;;;3.10;;
63714;SDS011;49858;48.956;9.076;2023-07-29T02:15:03;4.75;;;2.83;;
63714;SDS011;49858;48.956;9.076;2023-07-29T02:17:31;6.20;;;3.60;;
63714;SDS011;49858;48.956;9.076;2023-07-29T02:19:59;8.00;;;3.80;;
63714;SDS011;49858;48.956;9.076;2023-07-29T02:22:27;5.22;;;3.33;;
63714;SDS011;49858;48.956;9.076;2023-07-29T02:24:55;6.82;;;3.28;;
63714;SDS011;49858;48.956;9.076;2023-07-29T02:27:23;6.30;;;3.65;;
63714;SDS011;49858;48.956;9.076;2023-07-29T02:29:53;5.88;;;3.88;;
63714;SDS011;49858;48.956;9.076;2023-07-29T02:32:21;5.65;;;3.45;;
63714;SDS011;49858;48.956;9.076;2023-07-29T02:34:50;6.95;;;3.60;;
63714;SDS011;49858;48.956;9.076;2023-07-29T02:37:18;4.72;;;3.15;;
63714;SDS011;49858;48.956;9.076;2023-07-29T02:39:46;4.90;;;3.00;;
63714;SDS011;49858;48.956;9.076;2023-07-29T02:42:14;5.95;;;3.13;;
63714;SDS011;49858;48.956;9.076;2023-07-29T02:44:44;5.50;;;3.40;;
63714;SDS011;49858;48.956;9.076;2023-07-29T02:47:13;7.45;;;3.95;;
63714;SDS011;49858;48.956;9.076;2023-07-29T02:49:41;5.40;;;3.58;;
63714;SDS011;49858;48.956;9.076;2023-07-29T02:52:09;5.50;;;3.20;;
63714;SDS011;49858;48.956;9.076;2023-07-29T02:54:37;6.80;;;4.10;;
63714;SDS011;49858;48.956;9.076;2023-07-29T02:57:05;7.75;;;3.42;;
63714;SDS011;49858;48.956;9.076;2023-07-29T02:59:33;6.70;;;3.70;;
63714;SDS011;49858;48.956;9.076;2023-07-29T03:02:01;7.85;;;3.20;;
63714;SDS011;49858;48.956;9.076;2023-07-29T03:04:30;5.53;;;3.42;;
63714;SDS011;49858;48.956;9.076;2023-07-29T03:07:00;4.07;;;2.50;;
63714;SDS011;49858;48.956;9.076;2023-07-29T03:09:28;5.07;;;2.97;;
63714;SDS011;49858;48.956;9.076;2023-07-29T03:11:56;5.60;;;2.58;;
63714;SDS011;49858;48.956;9.076;2023-07-29T03:14:25;3.63;;;2.25;;
63714;SDS011;49858;48.956;9.076;2023-07-29T03:16:56;4.80;;;2.72;;
63714;SDS011;49858;48.956;9.076;2023-07-29T03:19:24;5.47;;;3.15;;
63714;SDS011;49858;48.956;9.076;2023-07-29T03:21:54;4.30;;;2.80;;
63714;SDS011;49858;48.956;9.076;2023-07-29T03:24:21;3.88;;;2.63;;
63714;SDS011;49858;48.956;9.076;2023-07-29T03:26:49;6.35;;;3.17;;
63714;SDS011;49858;48.956;9.076;2023-07-29T03:29:17;6.13;;;3.53;;
63714;SDS011;49858;48.956;9.076;2023-07-29T03:31:45;5.05;;;2.72;;
63714;SDS011;49858;48.956;9.076;2023-07-29T03:34:14;4.45;;;3.03;;
63714;SDS011;49858;48.956;9.076;2023-07-29T03:36:45;3.25;;;2.50;;
63714;SDS011;49858;48.956;9.076;2023-07-29T03:39:15;4.40;;;2.45;;
63714;SDS011;49858;48.956;9.076;2023-07-29T03:41:43;5.72;;;3.38;;
63714;SDS011;49858;48.956;9.076;2023-07-29T03:44:11;6.57;;;2.80;;
63714;SDS011;49858;48.956;9.076;2023-07-29T03:46:38;3.45;;;2.50;;
63714;SDS011;49858;48.956;9.076;2023-07-29T03:49:08;3.70;;;2.53;;
63714;SDS011;49858;48.956;9.076;2023-07-29T03:51:36;4.25;;;3.13;;
63714;SDS011;49858;48.956;9.076;2023-07-29T03:54:04;4.00;;;2.63;;
63714;SDS011;49858;48.956;9.076;2023-07-29T03:56:33;6.47;;;2.72;;
63714;SDS011;49858;48.956;9.076;2023-07-29T03:59:02;3.33;;;2.17;;
63714;SDS011;49858;48.956;9.076;2023-07-29T04:01:31;3.35;;;2.25;;
63714;SDS011;49858;48.956;9.076;2023-07-29T04:03:59;3.75;;;1.98;;
63714;SDS011;49858;48.956;9.076;2023-07-29T04:06:27;5.43;;;2.05;;
63714;SDS011;49858;48.956;9.076;2023-07-29T04:08:55;3.97;;;2.30;;
63714;SDS011;49858;48.956;9.076;2023-07-29T04:11:23;6.68;;;2.33;;
63714;SDS011;49858;48.956;9.076;2023-07-29T04:13:53;4.53;;;2.78;;
63714;SDS011;49858;48.956;9.076;2023-07-29T04:16:22;3.50;;;2.30;;
63714;SDS011;49858;48.956;9.076;2023-07-29T04:18:53;5.50;;;2.38;;
63714;SDS011;49858;48.956;9.076;2023-07-29T04:21:21;4.15;;;2.13;;
63714;SDS011;49858;48.956;9.076;2023-07-29T04:23:49;3.55;;;2.30;;
63714;SDS011;49858;48.956;9.076;2023-07-29T04:26:17;4.32;;;2.75;;
63714;SDS011;49858;48.956;9.076;2023-07-29T04:28:44;3.80;;;2.28;;
63714;SDS011;49858;48.956;9.076;2023-07-29T04:31:14;4.55;;;2.30;;
63714;SDS011;49858;48.956;9.076;2023-07-29T04:33:42;3.53;;;2.60;;
63714;SDS011;49858;48.956;9.076;2023-07-29T04:36:10;3.42;;;2.35;;
63714;SDS011;49858;48.956;9.076;2023-07-29T04:38:38;2.88;;;1.70;;
63714;SDS011;49858;48.956;9.076;2023-07-29T04:41:06;2.60;;;1.65;;
63714;SDS011;49858;48.956;9.076;2023-07-29T04:43:35;3.88;;;1.67;;
63714;SDS011;49858;48.956;9.076;2023-07-29T04:46:05;8.77;;;2.05;;
63714;SDS011;49858;48.956;9.076;2023-07-29T04:48:35;3.55;;;2.05;;
63714;SDS011;49858;48.956;9.076;2023-07-29T04:51:03;1.92;;;1.40;;
63714;SDS011;49858;48.956;9.076;2023-07-29T04:53:31;5.38;;;1.55;;
63714;SDS011;49858;48.956;9.076;2023-07-29T04:56:01;3.13;;;1.77;;
63714;SDS011;49858;48.956;9.076;2023-07-29T04:58:29;2.42;;;1.55;;
63714;SDS011;49858;48.956;9.076;2023-07-29T05:01:06;3.42;;;1.75;;
63714;SDS011;49858;48.956;9.076;2023-07-29T05:03:36;6.30;;;1.67;;
63714;SDS011;49858;48.956;9.076;2023-07-29T05:06:06;3.15;;;2.05;;
63714;SDS011;49858;48.956;9.076;2023-07-29T05:08:34;3.33;;;1.77;;
63714;SDS011;49858;48.956;9.076;2023-07-29T05:11:02;2.83;;;1.52;;
63714;SDS011;49858;48.956;9.076;2023-07-29T05:13:30;4.93;;;2.22;;
63714;SDS011;49858;48.956;9.076;2023-07-29T05:16:01;3.38;;;1.88;;
63714;SDS011;49858;48.956;9.076;2023-07-29T05:19:08;2.47;;;1.90;;
63714;SDS011;49858;48.956;9.076;2023-07-29T05:36:07;3.55;;;2.10;;
63714;SDS011;49858;48.956;9.076;2023-07-29T05:38:35;3.97;;;2.03;;
63714;SDS011;49858;48.956;9.076;2023-07-29T05:41:03;3.58;;;2.35;;
63714;SDS011;49858;48.956;9.076;2023-07-29T05:46:36;6.35;;;2.63;;
63714;SDS011;49858;48.956;9.076;2023-07-29T05:49:04;4.00;;;2.60;;
63714;SDS011;49858;48.956;9.076;2023-07-29T05:51:33;3.00;;;2.15;;
63714;SDS011;49858;48.956;9.076;2023-07-29T05:54:04;5.20;;;2.20;;
63714;SDS011;49858;48.956;9.076;2023-07-29T05:56:32;6.63;;;2.30;;
63714;SDS011;49858;48.956;9.076;2023-07-29T05:59:01;4.20;;;2.10;;
63714;SDS011;49858;48.956;9.076;2023-07-29T06:01:30;6.93;;;3.15;;
63714;SDS011;49858;48.956;9.076;2023-07-29T06:03:58;7.72;;;2.55;;
63714;SDS011;49858;48.956;9.076;2023-07-29T06:06:26;3.00;;;1.75;;
63714;SDS011;49858;48.956;9.076;2023-07-29T06:08:59;2.88;;;2.00;;
63714;SDS011;49858;48.956;9.076;2023-07-29T06:11:26;2.92;;;2.10;;
63714;SDS011;49858;48.956;9.076;2023-07-29T06:13:54;2.08;;;1.80;;
63714;SDS011;49858;48.956;9.076;2023-07-29T06:16:23;2.20;;;1.55;;
63714;SDS011;49858;48.956;9.076;2023-07-29T06:18:51;2.55;;;1.90;;
63714;SDS011;49858;48.956;9.076;2023-07-29T06:21:19;3.45;;;2.45;;
63714;SDS011;49858;48.956;9.076;2023-07-29T06:23:48;4.68;;;1.80;;
63714;SDS011;49858;48.956;9.076;2023-07-29T06:26:18;4.85;;;2.20;;
63714;SDS011;49858;48.956;9.076;2023-07-29T06:28:46;5.25;;;2.20;;
63714;SDS011;49858;48.956;9.076;2023-07-29T06:31:13;2.35;;;1.63;;
63714;SDS011;49858;48.956;9.076;2023-07-29T06:33:41;3.25;;;2.20;;
63714;SDS011;49858;48.956;9.076;2023-07-29T06:36:09;3.05;;;2.08;;
63714;SDS011;49858;48.956;9.076;2023-07-29T06:38:37;3.00;;;1.85;;
63714;SDS011;49858;48.956;9.076;2023-07-29T06:41:05;5.88;;;2.00;;
63714;SDS011;49858;48.956;9.076;2023-07-29T06:43:34;3.00;;;1.95;;
63714;SDS011;49858;48.956;9.076;2023-07-29T06:46:02;3.33;;;1.70;;
63714;SDS011;49858;48.956;9.076;2023-07-29T06:48:30;2.95;;;1.77;;
63714;SDS011;49858;48.956;9.076;2023-07-29T06:50:58;5.30;;;2.22;;
63714;SDS011;49858;48.956;9.076;2023-07-29T06:53:27;3.38;;;1.98;;
63714;SDS011;49858;48.956;9.076;2023-07-29T06:55:58;5.38;;;1.27;;
63714;SDS011;49858;48.956;9.076;2023-07-29T06:58:27;2.03;;;1.50;;
63714;SDS011;49858;48.956;9.076;2023-07-29T07:00:56;2.10;;;1.00;;
63714;SDS011;49858;48.956;9.076;2023-07-29T07:03:24;3.13;;;1.40;;
63714;SDS011;49858;48.956;9.076;2023-07-29T07:05:52;2.10;;;0.95;;
63714;SDS011;49858;48.956;9.076;2023-07-29T07:08:20;2.60;;;1.50;;
63714;SDS011;49858;48.956;9.076;2023-07-29T07:10:47;4.85;;;1.50;;
63714;SDS011;49858;48.956;9.076;2023-07-29T07:13:18;9.32;;;1.13;;
63714;SDS011;49858;48.956;9.076;2023-07-29T07:15:46;1.38;;;0.95;;
63714;SDS011;49858;48.956;9.076;2023-07-29T07:18:15;1.98;;;1.50;;
63714;SDS011;49858;48.956;9.076;2023-07-29T07:20:43;1.65;;;1.08;;
63714;SDS011;49858;48.956;9.076;2023-07-29T07:23:16;3.28;;;1.00;;
63714;SDS011;49858;48.956;9.076;2023-07-29T07:25:44;1.55;;;1.10;;
63714;SDS011;49858;48.956;9.076;2023-07-29T07:28:12;5.00;;;2.55;;
63714;SDS011;49858;48.956;9.076;2023-07-29T07:30:39;2.78;;;1.25;;
63714;SDS011;49858;48.956;9.076;2023-07-29T07:33:11;2.30;;;1.30;;
63714;SDS011;49858;48.956;9.076;2023-07-29T07:35:40;1.90;;;1.38;;
63714;SDS011;49858;48.956;9.076;2023-07-29T07:38:08;1.83;;;1.10;;
63714;SDS011;49858;48.956;9.076;2023-07-29T07:40:36;1.75;;;1.05;;
63714;SDS011;49858;48.956;9.076;2023-07-29T07:43:06;1.92;;;1.17;;
63714;SDS011;49858;48.956;9.076;2023-07-29T07:45:34;3.47;;;1.80;;
63714;SDS011;49858;48.956;9.076;2023-07-29T07:48:02;2.13;;;1.15;;
63714;SDS011;49858;48.956;9.076;2023-07-29T07:50:30;1.67;;;1.23;;
63714;SDS011;49858;48.956;9.076;2023-07-29T07:52:59;3.45;;;1.40;;
63714;SDS011;49858;48.956;9.076;2023-07-29T07:55:28;5.15;;;1.50;;
63714;SDS011;49858;48.956;9.076;2023-07-29T07:57:56;2.25;;;1.20;;
63714;SDS011;49858;48.956;9.076;2023-07-29T08:00:23;2.15;;;1.30;;
63714;SDS011;49858;48.956;9.076;2023-07-29T08:02:52;1.63;;;1.42;;
63714;SDS011;49858;48.956;9.076;2023-07-29T08:05:20;6.32;;;1.45;;
63714;SDS011;49858;48.956;9.076;2023-07-29T08:07:49;1.80;;;1.20;;
63714;SDS011;49858;48.956;9.076;2023-07-29T08:10:18;2.22;;;1.40;;
63714;SDS011;49858;48.956;9.076;2023-07-29T08:12:46;1.67;;;1.20;;
63714;SDS011;49858;48.956;9.076;2023-07-29T08:15:14;2.15;;;1.23;;
63714;SDS011;49858;48.956;9.076;2023-07-29T08:17:42;1.85;;;1.10;;
63714;SDS011;49858;48.956;9.076;2023-07-29T08:20:10;1.70;;;1.10;;
63714;SDS011;49858;48.956;9.076;2023-07-29T08:22:38;1.70;;;1.10;;
63714;SDS011;49858;48.956;9.076;2023-07-29T08:25:06;1.50;;;1.00;;
63714;SDS011;49858;48.956;9.076;2023-07-29T08:27:36;1.00;;;0.80;;
63714;SDS011;49858;48.956;9.076;2023-07-29T08:30:04;1.55;;;0.60;;
63714;SDS011;49858;48.956;9.076;2023-07-29T08:32:37;1.20;;;0.77;;
63714;SDS011;49858;48.956;9.076;2023-07-29T08:35:05;0.63;;;0.47;;
63714;SDS011;49858;48.956;9.076;2023-07-29T08:37:34;1.55;;;1.10;;
63714;SDS011;49858;48.956;9.076;2023-07-29T08:40:01;3.17;;;1.15;;
63714;SDS011;49858;48.956;9.076;2023-07-29T08:42:31;2.00;;;0.85;;
63714;SDS011;49858;48.956;9.076;2023-07-29T08:45:01;1.70;;;1.20;;
63714;SDS011;49858;48.956;9.076;2023-07-29T08:47:35;1.40;;;0.80;;
63714;SDS011;49858;48.956;9.076;2023-07-29T08:50:03;1.40;;;1.00;;
63714;SDS011;49858;48.956;9.076;2023-07-29T08:52:32;0.90;;;0.70;;
63714;SDS011;49858;48.956;9.076;2023-07-29T08:55:02;2.35;;;0.60;;
63714;SDS011;49858;48.956;9.076;2023-07-29T08:57:30;1.10;;;0.90;;
63714;SDS011;49858;48.956;9.076;2023-07-29T08:59:58;0.90;;;0.60;;
63714;SDS011;49858;48.956;9.076;2023-07-29T09:02:27;1.40;;;1.00;;
63714;SDS011;49858;48.956;9.076;2023-07-29T09:04:55;1.10;;;0.70;;
63714;SDS011;49858;48.956;9.076;2023-07-29T09:07:23;2.08;;;1.00;;
63714;SDS011;49858;48.956;9.076;2023-07-29T09:09:52;1.08;;;0.57;;
63714;SDS011;49858;48.956;9.076;2023-07-29T09:12:20;1.58;;;0.82;;
63714;SDS011;49858;48.956;9.076;2023-07-29T09:14:51;2.67;;;0.82;;
63714;SDS011;49858;48.956;9.076;2023-07-29T09:17:19;1.38;;;0.70;;
63714;SDS011;49858;48.956;9.076;2023-07-29T09:19:52;2.40;;;0.90;;
63714;SDS011;49858;48.956;9.076;2023-07-29T09:22:21;1.50;;;0.88;;
63714;SDS011;49858;48.956;9.076;2023-07-29T09:24:54;0.50;;;0.50;;
63714;SDS011;49858;48.956;9.076;2023-07-29T09:27:26;1.77;;;0.68;;
63714;SDS011;49858;48.956;9.076;2023-07-29T09:29:57;0.75;;;0.65;;
63714;SDS011;49858;48.956;9.076;2023-07-29T09:32:25;1.08;;;0.55;;
63714;SDS011;49858;48.956;9.076;2023-07-29T09:34:55;1.80;;;0.98;;
63714;SDS011;49858;48.956;9.076;2023-07-29T09:37:24;1.80;;;0.88;;
63714;SDS011;49858;48.956;9.076;2023-07-29T09:39:52;1.17;;;0.68;;
63714;SDS011;49858;48.956;9.076;2023-07-29T09:42:20;1.13;;;0.80;;
63714;SDS011;49858;48.956;9.076;2023-07-29T09:44:55;2.30;;;1.10;;
63714;SDS011;49858;48.956;9.076;2023-07-29T09:47:24;1.40;;;0.90;;
63714;SDS011;49858;48.956;9.076;2023-07-29T09:49:55;2.83;;;1.27;;
63714;SDS011;49858;48.956;9.076;2023-07-29T09:52:23;2.53;;;1.17;;
63714;SDS011;49858;48.956;9.076;2023-07-29T09:54:50;1.58;;;1.00;;
63714;SDS011;49858;48.956;9.076;2023-07-29T09:57:18;3.22;;;1.35;;
63714;SDS011;49858;48.956;9.076;2023-07-29T09:59:53;1.00;;;0.80;;
63714;SDS011;49858;48.956;9.076;2023-07-29T10:02:23;1.60;;;0.80;;
63714;SDS011;49858;48.956;9.076;2023-07-29T10:04:57;1.60;;;0.98;;
63714;SDS011;49858;48.956;9.076;2023-07-29T10:07:26;0.85;;;0.80;;
63714;SDS011;49858;48.956;9.076;2023-07-29T10:09:54;1.77;;;0.93;;
63714;SDS011;49858;48.956;9.076;2023-07-29T10:12:23;3.90;;;1.10;;
63714;SDS011;49858;48.956;9.076;2023-07-29T10:14:52;1.40;;;1.00;;
63714;SDS011;49858;48.956;9.076;2023-07-29T10:17:21;2.47;;;1.38;;
63714;SDS011;49858;48.956;9.076;2023-07-29T10:19:49;0.50;;;0.50;;
63714;SDS011;49858;48.956;9.076;2023-07-29T10:22:19;2.60;;;1.17;;
63714;SDS011;49858;48.956;9.076;2023-07-29T10:24:48;0.95;;;0.88;;
63714;SDS011;49858;48.956;9.076;2023-07-29T10:27:20;1.30;;;1.00;;
63714;SDS011;49858;48.956;9.076;2023-07-29T10:29:51;2.78;;;0.93;;
63714;SDS011;49858;48.956;9.076;2023-07-29T10:32:22;2.20;;;1.27;;
63714;SDS011;49858;48.956;9.076;2023-07-29T10:34:53;2.45;;;0.98;;
63714;SDS011;49858;48.956;9.076;2023-07-29T10:37:23;1.02;;;0.68;;
63714;SDS011;49858;48.956;9.076;2023-07-29T10:39:52;1.13;;;0.80;;
63714;SDS011;49858;48.956;9.076;2023-07-29T10:42:21;2.38;;;0.75;;
63714;SDS011;49858;48.956;9.076;2023-07-29T10:44:50;0.65;;;0.52;;
63714;SDS011;49858;48.956;9.076;2023-07-29T10:47:20;2.45;;;1.98;;
63714;SDS011;49858;48.956;9.076;2023-07-29T10:49:50;0.90;;;0.80;;
63714;SDS011;49858;48.956;9.076;2023-07-29T10:52:40;1.05;;;0.82;;
63714;SDS011;49858;48.956;9.076;2023-07-29T10:55:25;1.10;;;0.80;;
63714;SDS011;49858;48.956;9.076;2023-07-29T10:58:04;0.80;;;0.68;;
63714;SDS011;49858;48.956;9.076;2023-07-29T11:00:33;1.10;;;0.75;;
63714;SDS011;49858;48.956;9.076;2023-07-29T11:03:01;5.70;;;0.60;;
63714;SDS011;49858;48.956;9.076;2023-07-29T11:05:48;1.38;;;0.70;;
63714;SDS011;49858;48.956;9.076;2023-07-29T11:08:22;1.10;;;0.60;;
63714;SDS011;49858;48.956;9.076;2023-07-29T11:10:57;0.75;;;0.50;;
63714;SDS011;49858;48.956;9.076;2023-07-29T11:13:26;1.08;;;0.68;;
63714;SDS011;49858;48.956;9.076;2023-07-29T11:15:55;0.60;;;0.43;;
63714;SDS011;49858;48.956;9.076;2023-07-29T11:18:28;2.20;;;0.50;;
63714;SDS011;49858;48.956;9.076;2023-07-29T11:20:58;1.67;;;0.68;;
63714;SDS011;49858;48.956;9.076;2023-07-29T11:23:28;1.67;;;0.70;;
63714;SDS011;49858;48.956;9.076;2023-07-29T11:25:58;0.70;;;0.50;;
63714;SDS011;49858;48.956;9.076;2023-07-29T11:28:29;0.70;;;0.50;;
63714;SDS011;49858;48.956;9.076;2023-07-29T11:30:58;0.90;;;0.63;;
63714;SDS011;49858;48.956;9.076;2023-07-29T11:33:26;0.93;;;0.65;;
63714;SDS011;49858;48.956;9.076;2023-07-29T11:35:55;0.90;;;0.60;;
63714;SDS011;49858;48.956;9.076;2023-07-29T11:38:23;2.58;;;0.55;;
63714;SDS011;49858;48.956;9.076;2023-07-29T11:40:56;1.00;;;0.60;;
63714;SDS011;49858;48.956;9.076;2023-07-29T11:43:25;0.88;;;0.50;;
63714;SDS011;49858;48.956;9.076;2023-07-29T11:45:54;2.90;;;0.95;;
63714;SDS011;49858;48.956;9.076;2023-07-29T11:48:28;0.85;;;0.50;;
63714;SDS011;49858;48.956;9.076;2023-07-29T11:50:58;0.75;;;0.47;;
63714;SDS011;49858;48.956;9.076;2023-07-29T11:53:28;2.08;;;0.90;;
63714;SDS011;49858;48.956;9.076;2023-07-29T11:55:58;1.90;;;0.57;;
63714;SDS011;49858;48.956;9.076;2023-07-29T11:58:26;1.08;;;0.70;;
63714;SDS011;49858;48.956;9.076;2023-07-29T12:00:54;1.17;;;0.50;;
63714;SDS011;49858;48.956;9.076;2023-07-29T12:03:25;1.17;;;0.70;;
63714;SDS011;49858;48.956;9.076;2023-07-29T12:05:54;0.95;;;0.57;;
63714;SDS011;49858;48.956;9.076;2023-07-29T12:08:22;1.20;;;0.77;;
63714;SDS011;49858;48.956;9.076;2023-07-29T12:10:50;1.73;;;1.10;;
63714;SDS011;49858;48.956;9.076;2023-07-29T12:13:23;0.90;;;0.68;;
63714;SDS011;49858;48.956;9.076;2023-07-29T12:15:51;1.23;;;0.65;;
63714;SDS011;49858;48.956;9.076;2023-07-29T12:18:23;1.05;;;0.75;;
63714;SDS011;49858;48.956;9.076;2023-07-29T12:20:57;0.93;;;0.82;;
63714;SDS011;49858;48.956;9.076;2023-07-29T12:23:25;2.22;;;1.00;;
63714;SDS011;49858;48.956;9.076;2023-07-29T12:25:56;1.90;;;0.95;;
63714;SDS011;49858;48.956;9.076;2023-07-29T12:28:29;1.23;;;0.80;;
63714;SDS011;49858;48.956;9.076;2023-07-29T12:30:59;0.70;;;0.30;;
63714;SDS011;49858;48.956;9.076;2023-07-29T12:33:30;1.20;;;0.80;;
63714;SDS011;49858;48.956;9.076;2023-07-29T12:35:59;0.98;;;0.77;;
63714;SDS011;49858;48.956;9.076;2023-07-29T12:38:27;1.02;;;0.80;;
63714;SDS011;49858;48.956;9.076;2023-07-29T12:40:55;0.95;;;0.70;;
63714;SDS011;49858;48.956;9.076;2023-07-29T12:43:24;1.02;;;0.75;;
63714;SDS011;49858;48.956;9.076;2023-07-29T12:45:54;1.30;;;0.85;;
63714;SDS011;49858;48.956;9.076;2023-07-29T12:48:22;1.63;;;0.98;;
63714;SDS011;49858;48.956;9.076;2023-07-29T12:50:49;1.00;;;0.88;;
63714;SDS011;49858;48.956;9.076;2023-07-29T12:53:18;1.70;;;1.20;;
63714;SDS011;49858;48.956;9.076;2023-07-29T12:55:45;2.03;;;1.02;;
63714;SDS011;49858;48.956;9.076;2023-07-29T12:58:13;3.33;;;1.70;;
63714;SDS011;49858;48.956;9.076;2023-07-29T13:00:41;1.42;;;0.77;;
63714;SDS011;49858;48.956;9.076;2023-07-29T13:03:11;1.00;;;0.60;;
63714;SDS011;49858;48.956;9.076;2023-07-29T13:05:39;2.45;;;0.90;;
63714;SDS011;49858;48.956;9.076;2023-07-29T13:08:07;3.38;;;1.30;;
63714;SDS011;49858;48.956;9.076;2023-07-29T13:10:34;1.25;;;0.80;;
63714;SDS011;49858;48.956;9.076;2023-07-29T13:13:02;1.45;;;0.93;;
63714;SDS011;49858;48.956;9.076;2023-07-29T13:15:30;0.68;;;0.45;;
63714;SDS011;49858;48.956;9.076;2023-07-29T13:17:58;1.23;;;0.88;;
63714;SDS011;49858;48.956;9.076;2023-07-29T13:20:27;1.55;;;0.90;;
63714;SDS011;49858;48.956;9.076;2023-07-29T13:22:58;1.23;;;0.75;;
63714;SDS011;49858;48.956;9.076;2023-07-29T13:25:26;0.98;;;0.70;;
63714;SDS011;49858;48.956;9.076;2023-07-29T13:27:54;1.45;;;0.80;;
63714;SDS011;49858;48.956;9.076;2023-07-29T13:30:22;1.58;;;1.00;;
63714;SDS011;49858;48.956;9.076;2023-07-29T13:32:50;1.98;;;0.88;;
63714;SDS011;49858;48.956;9.076;2023-07-29T13:35:18;1.88;;;1.05;;
63714;SDS011;49858;48.956;9.076;2023-07-29T13:37:47;1.67;;;1.13;;
63714;SDS011;49858;48.956;9.076;2023-07-29T13:40:15;1.80;;;1.10;;
63714;SDS011;49858;48.956;9.076;2023-07-29T13:42:43;1.48;;;0.88;;
63714;SDS011;49858;48.956;9.076;2023-07-29T13:45:11;2.35;;;0.75;;
63714;SDS011;49858;48.956;9.076;2023-07-29T13:47:38;2.05;;;0.80;;
63714;SDS011;49858;48.956;9.076;2023-07-29T13:50:07;1.65;;;1.00;;
63714;SDS011;49858;48.956;9.076;2023-07-29T13:52:35;3.13;;;0.93;;
63714;SDS011;49858;48.956;9.076;2023-07-29T13:55:07;0.95;;;0.70;;
63714;SDS011;49858;48.956;9.076;2023-07-29T13:57:36;1.52;;;0.82;;
63714;SDS011;49858;48.956;9.076;2023-07-29T14:00:05;1.70;;;1.10;;
63714;SDS011;49858;48.956;9.076;2023-07-29T14:02:38;2.03;;;0.97;;
63714;SDS011;49858;48.956;9.076;2023-07-29T14:05:06;0.75;;;0.63;;
63714;SDS011;49858;48.956;9.076;2023-07-29T14:07:34;1.50;;;0.93;;
63714;SDS011;49858;48.956;9.076;2023-07-29T14:10:02;2.88;;;1.10;;
63714;SDS011;49858;48.956;9.076;2023-07-29T14:12:32;1.35;;;0.65;;
63714;SDS011;49858;48.956;9.076;2023-07-29T14:15:00;0.80;;;0.57;;
63714;SDS011;49858;48.956;9.076;2023-07-29T14:17:28;1.70;;;1.00;;
63714;SDS011;49858;48.956;9.076;2023-07-29T14:19:56;2.22;;;1.00;;
63714;SDS011;49858;48.956;9.076;2023-07-29T14:22:24;1.33;;;0.90;;
63714;SDS011;49858;48.956;9.076;2023-07-29T14:24:52;2.65;;;0.85;;
63714;SDS011;49858;48.956;9.076;2023-07-29T14:27:20;1.40;;;0.70;;
63714;SDS011;49858;48.956;9.076;2023-07-29T14:29:49;1.55;;;0.77;;
63714;SDS011;49858;48.956;9.076;2023-07-29T14:32:19;1.77;;;0.93;;
63714;SDS011;49858;48.956;9.076;2023-07-29T14:34:49;2.90;;;1.08;;
63714;SDS011;49858;48.956;9.076;2023-07-29T14:37:19;1.38;;;0.98;;
63714;SDS011;49858;48.956;9.076;2023-07-29T14:39:46;2.90;;;1.52;;
63714;SDS011;49858;48.956;9.076;2023-07-29T14:42:14;1.65;;;1.23;;
63714;SDS011;49858;48.956;9.076;2023-07-29T14:44:42;2.75;;;1.45;;
63714;SDS011;49858;48.956;9.076;2023-07-29T14:47:13;2.10;;;0.80;;
63714;SDS011;49858;48.956;9.076;2023-07-29T14:49:43;1.65;;;1.25;;
63714;SDS011;49858;48.956;9.076;2023-07-29T14:52:11;1.67;;;1.08;;
63714;SDS011;49858;48.956;9.076;2023-07-29T14:54:39;1.40;;;0.95;;
63714;SDS011;49858;48.956;9.076;2023-07-29T14:57:07;1.73;;;1.10;;
63714;SDS011;49858;48.956;9.076;2023-07-29T14:59:37;8.63;;;0.82;;
63714;SDS011;49858;48.956;9.076;2023-07-29T15:02:05;1.65;;;0.90;;
63714;SDS011;49858;48.956;9.076;2023-07-29T15:04:34;2.10;;;1.15;;
63714;SDS011;49858;48.956;9.076;2023-07-29T15:07:02;1.58;;;0.90;;
63714;SDS011;49858;48.956;9.076;2023-07-29T15:09:30;2.85;;;1.73;;
63714;SDS011;49858;48.956;9.076;2023-07-29T15:12:01;2.25;;;1.27;;
63714;SDS011;49858;48.956;9.076;2023-07-29T15:14:28;1.65;;;1.15;;
63714;SDS011;49858;48.956;9.076;2023-07-29T15:16:56;1.48;;;0.90;;
63714;SDS011;49858;48.956;9.076;2023-07-29T15:19:24;1.80;;;1.02;;